Quitman, Arkansas
Current Conditions -  °F | °C
As of 4:56 PM on Saturday 25 Oct 2014 (Local Time) from KSRC Reporting Station
Clear Clear  
Wind Chill: 84°   Ceiling: Unl
Heat Index: 86°   Visibility: 10mi
Dew Point: 65°   Wind: 5mph
Humidity: 53%   Direction: 210°SSW
Pressure: 30.02"   Gusts: NA
Location:  35.38°N, 92.22°W
Report Text: KSRC 252156Z AUTO 21004KT 10SM CLR 29/18 A3002 RMK AO2 SLP170 T02890183 TSNO
Loading
Personal Weather Stations






























Interactive Weather Map
Tropical Storm Tracking
New forecast layout! Learn more

10-Day Weather Forecast

Advertisements
Track Severe Weather on mobile